Time;durP1;ratioP1;P1;durP2;ratioP2;P2;SDS_P1;SDS_P2;PMS_P1;PMS_P2;Temp;Humidity;BMP_temperature;BMP_pressure;BME280_temperature;BME280_humidity;BME280_pressure;Samples;Min_cycle;Max_cycle;Signal;HPM_P1;HPM_P2
2023/12/26 02:38:15;;;;;;;4.80;3.00;;;;;;;;;;3847374;37;43496;-71
2023/12/26 02:41:03;;;;;;;3.90;2.50;;;;;;;;;;4388757;32;60640;-71
2023/12/26 02:43:50;;;;;;;3.28;2.37;;;;;;;;;;4388349;32;70270;-71
2023/12/26 02:46:37;;;;;;;5.05;2.90;;;;;;;;;;4398968;32;69468;-71
2023/12/26 02:49:24;;;;;;;3.35;2.33;;;;;;;;;;4399136;32;66795;-70
2023/12/26 02:52:11;;;;;;;3.17;2.30;;;;;;;;;;4398976;32;70562;-71
2023/12/26 02:54:58;;;;;;;3.72;2.45;;;;;;;;;;4372302;32;64576;-71
2023/12/26 02:57:45;;;;;;;3.53;2.30;;;;;;;;;;4394300;32;67038;-70
2023/12/26 03:00:32;;;;;;;4.68;2.72;;;;;;;;;;4373338;32;58904;-71
2023/12/26 03:03:19;;;;;;;3.00;2.20;;;;;;;;;;4383356;32;71207;-71
2023/12/26 03:06:07;;;;;;;3.75;2.65;;;;;;;;;;4383631;32;65615;-71
2023/12/26 03:08:54;;;;;;;4.68;2.72;;;;;;;;;;4362168;32;67721;-71
2023/12/26 03:11:41;;;;;;;2.53;1.90;;;;;;;;;;4372469;32;59656;-71
2023/12/26 03:14:28;;;;;;;4.37;2.80;;;;;;;;;;4383306;32;69567;-71
2023/12/26 03:17:14;;;;;;;4.28;2.80;;;;;;;;;;4372045;32;69072;-71
2023/12/26 03:20:01;;;;;;;3.85;2.50;;;;;;;;;;4372642;32;66930;-71
2023/12/26 03:23:00;;;;;;;3.78;2.28;;;;;;;;;;4371791;32;73067;-71
2023/12/26 03:26:10;;;;;;;3.60;2.60;;;;;;;;;;4386679;32;65663;-70
2023/12/26 03:28:57;;;;;;;3.55;2.67;;;;;;;;;;4383414;32;69309;-72
2023/12/26 03:31:46;;;;;;;3.83;2.58;;;;;;;;;;4395124;32;67617;-72
2023/12/26 03:34:33;;;;;;;4.05;2.70;;;;;;;;;;4382951;32;71317;-72
2023/12/26 03:37:20;;;;;;;3.33;2.42;;;;;;;;;;4393247;32;68198;-71
2023/12/26 03:40:09;;;;;;;5.20;2.50;;;;;;;;;;4382377;32;68305;-70
2023/12/26 03:42:56;;;;;;;3.67;2.80;;;;;;;;;;4383324;32;59418;-71
2023/12/26 03:45:43;;;;;;;3.22;2.47;;;;;;;;;;4371668;32;71872;-71
2023/12/26 03:51:15;;;;;;;4.68;2.40;;;;;;;;;;3847429;37;43078;-71
2023/12/26 03:54:03;;;;;;;3.95;2.78;;;;;;;;;;4388355;32;59205;-70
2023/12/26 03:56:50;;;;;;;4.45;2.80;;;;;;;;;;4398426;32;69429;-71
2023/12/26 03:59:37;;;;;;;3.12;2.33;;;;;;;;;;4389451;32;68714;-70
2023/12/26 04:02:24;;;;;;;4.00;2.92;;;;;;;;;;4401998;32;66727;-71
2023/12/26 04:05:10;;;;;;;4.03;2.70;;;;;;;;;;4398977;32;70675;-71
2023/12/26 04:07:57;;;;;;;4.82;2.62;;;;;;;;;;4398788;32;66079;-71
2023/12/26 04:13:25;;;;;;;4.72;3.35;;;;;;;;;;3847468;37;43876;-70
2023/12/26 04:16:13;;;;;;;5.55;3.35;;;;;;;;;;4387968;32;57997;-71
2023/12/26 04:19:00;;;;;;;4.43;3.03;;;;;;;;;;4411121;32;70771;-70
2023/12/26 04:21:46;;;;;;;;;;;;;;;;;;4398651;32;68062;-71
2023/12/26 04:24:31;;;;;;;6.20;4.10;;;;;;;;;;3847348;37;43156;-70
2023/12/26 04:27:19;;;;;;;6.10;4.32;;;;;;;;;;4410290;32;59351;-71
2023/12/26 04:30:07;;;;;;;5.68;4.15;;;;;;;;;;4398469;32;68834;-71
2023/12/26 04:32:55;;;;;;;6.35;4.15;;;;;;;;;;4398976;32;69156;-71
2023/12/26 04:35:42;;;;;;;7.30;4.50;;;;;;;;;;4388461;32;66642;-71
2023/12/26 04:38:29;;;;;;;6.15;4.00;;;;;;;;;;4409540;32;71561;-73
2023/12/26 04:41:15;;;;;;;6.95;4.15;;;;;;;;;;4398990;32;65757;-71
2023/12/26 04:44:23;;;;;;;5.35;3.35;;;;;;;;;;3847573;37;43513;-71
2023/12/26 04:47:04;;;;;;;6.53;4.03;;;;;;;;;;3868851;36;43071;-71
2023/12/26 04:49:52;;;;;;;6.37;3.90;;;;;;;;;;4393616;32;60121;-71
2023/12/26 04:52:39;;;;;;;4.40;2.90;;;;;;;;;;4389792;32;68378;-71
2023/12/26 04:55:26;;;;;;;7.20;4.28;;;;;;;;;;4401659;32;68903;-71
2023/12/26 04:58:13;;;;;;;6.65;4.45;;;;;;;;;;4407117;32;67753;-71
2023/12/26 05:00:53;;;;;;;7.87;4.37;;;;;;;;;;3873472;36;43158;-71
2023/12/26 05:03:41;;;;;;;8.35;5.32;;;;;;;;;;4406713;32;60094;-70
2023/12/26 05:06:27;;;;;;;7.70;5.20;;;;;;;;;;4393287;32;69328;-71
2023/12/26 05:09:16;;;;;;;7.20;4.68;;;;;;;;;;4404031;32;69563;-71
2023/12/26 05:12:03;;;;;;;8.45;4.90;;;;;;;;;;4403743;32;66795;-71
2023/12/26 05:14:50;;;;;;;7.47;4.95;;;;;;;;;;4403504;32;71591;-71
2023/12/26 05:17:37;;;;;;;7.95;5.20;;;;;;;;;;4400822;32;63717;-71
2023/12/26 05:20:23;;;;;;;7.53;4.85;;;;;;;;;;4390080;32;68448;-71
2023/12/26 05:23:10;;;;;;;8.02;5.40;;;;;;;;;;4392984;32;60305;-71
2023/12/26 05:25:59;;;;;;;7.78;4.75;;;;;;;;;;4379258;32;71145;-71
2023/12/26 05:28:45;;;;;;;9.23;5.05;;;;;;;;;;4390062;32;64303;-70
2023/12/26 05:31:32;;;;;;;;;;;;;;;;;;4403625;32;67778;-70
2023/12/26 05:34:18;;;;;;;7.93;4.75;;;;;;;;;;4426700;32;59484;-70
2023/12/26 05:37:05;;;;;;;;;;;;;;;;;;4400721;32;69793;-71
2023/12/26 05:39:50;;;;;;;8.82;4.87;;;;;;;;;;3824084;37;43418;-72
2023/12/26 05:42:37;;;;;;;7.90;4.97;;;;;;;;;;4384383;32;59158;-73
2023/12/26 05:45:23;;;;;;;8.48;5.00;;;;;;;;;;4396393;32;70076;-71
2023/12/26 05:48:11;;;;;;;9.02;5.10;;;;;;;;;;4394718;32;68027;-73
2023/12/26 05:50:57;;;;;;;7.62;5.28;;;;;;;;;;4394042;32;67259;-71
2023/12/26 05:53:44;;;;;;;8.27;5.05;;;;;;;;;;4393698;32;70752;-72
2023/12/26 05:56:31;;;;;;;8.43;5.35;;;;;;;;;;4383029;32;63961;-72
2023/12/26 05:59:18;;;;;;;7.68;4.82;;;;;;;;;;4394180;32;67179;-72
2023/12/26 06:02:05;;;;;;;7.65;4.93;;;;;;;;;;4383685;32;59149;-72
2023/12/26 06:04:52;;;;;;;7.75;4.90;;;;;;;;;;4393574;32;73439;-70
2023/12/26 06:07:38;;;;;;;7.78;4.68;;;;;;;;;;4383588;32;64798;-73
2023/12/26 06:10:25;;;;;;;5.70;4.07;;;;;;;;;;4394233;32;67244;-72
2023/12/26 06:13:12;;;;;;;7.50;4.68;;;;;;;;;;4383646;32;58995;-73
2023/12/26 06:15:59;;;;;;;7.62;4.50;;;;;;;;;;4383254;32;70418;-70
2023/12/26 06:18:46;;;;;;;5.43;3.75;;;;;;;;;;4383363;32;68336;-72
2023/12/26 06:21:33;;;;;;;6.00;3.90;;;;;;;;;;4383126;32;67704;-70
2023/12/26 06:24:20;;;;;;;;;;;;;;;;;;4383385;32;71943;-71
2023/12/26 06:27:07;;;;;;;7.10;4.12;;;;;;;;;;4372535;32;67405;-72
2023/12/26 06:29:54;;;;;;;6.47;4.03;;;;;;;;;;4393941;32;69575;-73
2023/12/26 06:32:41;;;;;;;7.25;4.57;;;;;;;;;;4393973;32;67386;-69
2023/12/26 06:35:28;;;;;;;5.40;3.50;;;;;;;;;;4383035;32;71924;-68
2023/12/26 06:38:15;;;;;;;5.55;3.00;;;;;;;;;;4382527;32;66019;-68
2023/12/26 06:41:02;;;;;;;7.03;3.62;;;;;;;;;;4382713;32;68138;-68
2023/12/26 06:43:49;;;;;;;5.53;3.50;;;;;;;;;;4371933;32;59825;-69
2023/12/26 06:46:41;;;;;;;5.65;3.90;;;;;;;;;;4393909;32;70737;-68
2023/12/26 06:49:28;;;;;;;5.55;3.90;;;;;;;;;;4379157;32;69018;-68
2023/12/26 06:52:15;;;;;;;6.32;3.97;;;;;;;;;;4372428;32;68693;-70
2023/12/26 06:55:01;;;;;;;5.37;3.95;;;;;;;;;;4372595;32;59929;-71
2023/12/26 06:57:48;;;;;;;5.12;3.42;;;;;;;;;;4361167;32;69007;-70
2023/12/26 07:00:38;;;;;;;6.35;3.80;;;;;;;;;;4372593;32;68441;-69
2023/12/26 07:03:25;;;;;;;5.93;4.18;;;;;;;;;;4372760;32;67389;-72
2023/12/26 07:06:12;;;;;;;5.10;3.65;;;;;;;;;;4382439;32;72903;-74
2023/12/26 07:08:59;;;;;;;6.10;4.18;;;;;;;;;;4361820;32;67189;-72
2023/12/26 07:11:48;;;;;;;5.60;3.97;;;;;;;;;;4372124;32;67645;-72
2023/12/26 07:14:35;;;;;;;6.37;3.72;;;;;;;;;;4361813;32;61464;-70
2023/12/26 07:17:21;;;;;;;5.60;4.00;;;;;;;;;;4371866;32;71117;-71
2023/12/26 07:20:08;;;;;;;5.47;3.90;;;;;;;;;;4372400;32;65017;-71
2023/12/26 07:22:55;;;;;;;5.57;3.65;;;;;;;;;;4383056;32;67818;-70
2023/12/26 07:25:42;;;;;;;7.18;4.07;;;;;;;;;;4372222;32;59114;-73
2023/12/26 07:28:30;;;;;;;5.45;3.70;;;;;;;;;;4373803;32;70127;-71
2023/12/26 07:31:28;;;;;;;6.15;4.10;;;;;;;;;;4374091;32;68154;-72
2023/12/26 07:34:15;;;;;;;6.53;3.92;;;;;;;;;;4372430;32;67678;-71
2023/12/26 07:37:01;;;;;;;;;;;;;;;;;;4383058;32;70826;-72
2023/12/26 07:39:48;;;;;;;7.00;3.83;;;;;;;;;;4382758;32;66239;-71
2023/12/26 07:42:35;;;;;;;7.60;4.53;;;;;;;;;;4372378;32;66616;-72
2023/12/26 07:45:24;;;;;;;;;;;;;;;;;;4383402;32;67446;-70
2023/12/26 07:48:11;;;;;;;5.50;3.20;;;;;;;;;;4360792;32;71467;-73
2023/12/26 07:50:58;;;;;;;;;;;;;;;;;;4371642;32;67184;-72
2023/12/26 07:53:46;;;;;;;5.85;3.90;;;;;;;;;;4382367;32;67745;-73
2023/12/26 07:56:32;;;;;;;6.03;3.92;;;;;;;;;;4382775;32;59805;-75
2023/12/26 07:59:19;;;;;;;5.72;3.55;;;;;;;;;;4371535;32;70647;-73
2023/12/26 08:02:06;;;;;;;5.15;3.17;;;;;;;;;;4382838;32;68606;-72
2023/12/26 08:04:53;;;;;;;5.18;3.30;;;;;;;;;;4351902;32;67941;-72
2023/12/26 08:07:39;;;;;;;5.05;3.28;;;;;;;;;;4373697;32;58764;-73
2023/12/26 08:10:26;;;;;;;4.68;3.25;;;;;;;;;;4374269;32;69646;-74
2023/12/26 08:13:13;;;;;;;5.10;3.37;;;;;;;;;;4373556;32;69113;-75
2023/12/26 08:16:00;;;;;;;3.90;2.90;;;;;;;;;;4371603;32;68464;-71
2023/12/26 08:18:47;;;;;;;4.30;3.22;;;;;;;;;;4360380;32;72196;-69
2023/12/26 08:21:33;;;;;;;4.85;3.50;;;;;;;;;;4371117;32;65636;-73
2023/12/26 08:24:20;;;;;;;5.25;3.33;;;;;;;;;;4382281;32;66796;-73
2023/12/26 08:27:07;;;;;;;4.68;3.42;;;;;;;;;;4372202;32;59171;-72
2023/12/26 08:29:53;;;;;;;5.57;3.90;;;;;;;;;;4360105;32;71083;-72
2023/12/26 08:32:40;;;;;;;3.47;2.70;;;;;;;;;;4361069;32;64912;-71
2023/12/26 08:35:26;;;;;;;4.37;2.80;;;;;;;;;;4370859;32;68031;-73
2023/12/26 08:38:07;;;;;;;3.83;2.40;;;;;;;;;;3847283;37;43845;-72
2023/12/26 08:40:52;;;;;;;4.43;3.03;;;;;;;;;;3847237;37;43614;-73
2023/12/26 08:46:22;;;;;;;5.03;3.58;;;;;;;;;;3847480;37;43833;-71
2023/12/26 08:49:09;;;;;;;5.15;3.42;;;;;;;;;;4377354;32;61350;-72
2023/12/26 08:51:56;;;;;;;4.07;2.75;;;;;;;;;;4387412;32;70336;-71
2023/12/26 08:54:43;;;;;;;4.20;2.97;;;;;;;;;;4410778;32;69134;-72
2023/12/26 08:57:30;;;;;;;;;;;;;;;;;;4399239;32;66531;-72
2023/12/26 09:00:17;;;;;;;4.18;3.03;;;;;;;;;;4411117;32;72040;-72
2023/12/26 09:03:03;;;;;;;4.85;3.42;;;;;;;;;;4398281;32;67106;-72
2023/12/26 09:05:50;;;;;;;4.70;3.40;;;;;;;;;;4387329;32;68131;-72
2023/12/26 09:08:36;;;;;;;;;;;;;;;;;;4399469;32;60201;-72
2023/12/26 09:11:23;;;;;;;5.37;3.47;;;;;;;;;;4409587;32;71522;-72
2023/12/26 09:14:10;;;;;;;5.47;3.40;;;;;;;;;;4389196;32;66496;-74
2023/12/26 09:16:56;;;;;;;4.78;3.10;;;;;;;;;;4400935;32;66913;-72
2023/12/26 09:19:43;;;;;;;5.62;3.42;;;;;;;;;;4388323;32;60237;-73
2023/12/26 09:22:30;;;;;;;4.55;2.95;;;;;;;;;;4409248;32;70621;-71
2023/12/26 09:25:17;;;;;;;4.28;2.92;;;;;;;;;;4398521;32;69069;-72
2023/12/26 09:28:04;;;;;;;3.17;2.28;;;;;;;;;;4387799;32;66775;-71
2023/12/26 09:30:50;;;;;;;4.82;3.05;;;;;;;;;;4387546;32;70864;-72
2023/12/26 09:33:37;;;;;;;4.07;2.92;;;;;;;;;;4398757;32;66221;-72
2023/12/26 09:36:24;;;;;;;4.10;2.78;;;;;;;;;;4386916;32;71208;-72
2023/12/26 09:39:10;;;;;;;3.12;2.42;;;;;;;;;;4387768;32;66830;-71
2023/12/26 09:41:59;;;;;;;4.53;2.87;;;;;;;;;;4376410;32;71873;-70
2023/12/26 09:44:46;;;;;;;4.65;2.92;;;;;;;;;;4389113;32;66055;-72
2023/12/26 09:47:33;;;;;;;;;;;;;;;;;;4398819;32;67444;-71
2023/12/26 09:50:20;;;;;;;4.18;3.00;;;;;;;;;;4410719;32;59872;-70
2023/12/26 09:53:09;;;;;;;4.70;2.85;;;;;;;;;;4398092;32;70545;-72
2023/12/26 09:55:55;;;;;;;4.85;2.85;;;;;;;;;;4394587;32;70199;-72
2023/12/26 09:58:43;;;;;;;4.65;2.90;;;;;;;;;;4387636;32;68179;-71
2023/12/26 10:01:30;;;;;;;4.55;3.30;;;;;;;;;;4377642;32;58917;-71
2023/12/26 10:04:16;;;;;;;8.13;3.60;;;;;;;;;;4376963;32;70778;-71
2023/12/26 10:07:03;;;;;;;4.55;2.53;;;;;;;;;;4377550;32;68254;-72
2023/12/26 10:09:51;;;;;;;4.62;3.28;;;;;;;;;;4387920;32;67579;-71
2023/12/26 10:12:38;;;;;;;5.53;3.47;;;;;;;;;;4377027;32;72067;-72
2023/12/26 10:15:26;;;;;;;3.67;2.90;;;;;;;;;;4387982;32;66447;-72
2023/12/26 10:18:13;;;;;;;4.57;3.03;;;;;;;;;;4398915;32;67214;-71
2023/12/26 10:21:00;;;;;;;3.85;2.80;;;;;;;;;;4377654;32;60166;-71
2023/12/26 10:23:46;;;;;;;5.55;2.83;;;;;;;;;;4398710;32;70602;-72
2023/12/26 10:26:33;;;;;;;4.20;2.33;;;;;;;;;;4387171;32;67292;-71
2023/12/26 10:29:23;;;;;;;3.95;2.70;;;;;;;;;;4387590;32;68763;-72
2023/12/26 10:32:09;;;;;;;4.43;2.83;;;;;;;;;;4377357;32;60609;-72
2023/12/26 10:34:56;;;;;;;4.22;2.92;;;;;;;;;;4399585;32;70701;-71
2023/12/26 10:37:43;;;;;;;4.25;2.75;;;;;;;;;;4365673;32;70253;-72
2023/12/26 10:40:30;;;;;;;3.95;2.80;;;;;;;;;;4376987;32;67686;-72
2023/12/26 10:43:17;;;;;;;5.30;3.33;;;;;;;;;;4387588;32;72055;-71
2023/12/26 10:46:06;;;;;;;4.40;2.80;;;;;;;;;;4365842;32;67074;-71
2023/12/26 10:48:55;;;;;;;4.07;2.28;;;;;;;;;;4398911;32;66723;-71
2023/12/26 10:51:45;;;;;;;3.03;2.15;;;;;;;;;;4377758;32;66921;-73
2023/12/26 10:54:31;;;;;;;2.50;2.22;;;;;;;;;;4387440;32;71747;-72
2023/12/26 10:57:18;;;;;;;4.12;2.42;;;;;;;;;;4387452;32;64870;-72
2023/12/26 11:00:05;;;;;;;5.35;3.10;;;;;;;;;;4377437;32;67529;-73
2023/12/26 11:02:52;;;;;;;3.05;2.45;;;;;;;;;;4367840;32;61219;-72
2023/12/26 11:05:38;;;;;;;5.37;3.10;;;;;;;;;;4376045;32;70837;-72
2023/12/26 11:08:25;;;;;;;5.97;3.58;;;;;;;;;;4375717;32;69853;-71
2023/12/26 11:11:12;;;;;;;5.03;3.03;;;;;;;;;;4378965;32;66435;-73
2023/12/26 11:13:59;;;;;;;4.60;2.90;;;;;;;;;;4369868;32;60659;-72
2023/12/26 11:16:47;;;;;;;7.00;3.08;;;;;;;;;;4377032;32;69551;-73
2023/12/26 11:19:33;;;;;;;4.15;3.00;;;;;;;;;;4376887;32;69209;-72
2023/12/26 11:22:20;;;;;;;4.32;2.90;;;;;;;;;;4365393;32;68827;-72
2023/12/26 11:25:07;;;;;;;3.65;2.75;;;;;;;;;;4375625;32;72748;-71
2023/12/26 11:27:54;;;;;;;4.87;3.20;;;;;;;;;;4375666;32;66665;-71
2023/12/26 11:30:40;;;;;;;4.57;3.10;;;;;;;;;;4375796;32;69610;-72
2023/12/26 11:33:28;;;;;;;4.00;2.80;;;;;;;;;;4365661;32;61730;-72
2023/12/26 11:36:14;;;;;;;4.40;3.00;;;;;;;;;;4364976;32;71581;-71
2023/12/26 11:39:01;;;;;;;4.47;2.85;;;;;;;;;;4386583;32;65758;-71
2023/12/26 11:41:48;;;;;;;3.83;2.83;;;;;;;;;;4375930;32;67573;-71
2023/12/26 11:44:35;;;;;;;4.32;2.97;;;;;;;;;;4387152;32;60121;-71
2023/12/26 11:47:22;;;;;;;;;;;;;;;;;;4375834;32;71610;-71
2023/12/26 11:50:09;;;;;;;3.62;2.62;;;;;;;;;;4375959;32;69560;-72
2023/12/26 11:52:55;;;;;;;;;;;;;;;;;;4386824;32;67841;-72
2023/12/26 11:55:42;;;;;;;4.10;2.67;;;;;;;;;;4376039;32;70600;-72
2023/12/26 11:58:28;;;;;;;3.87;2.60;;;;;;;;;;4375969;32;64705;-72
2023/12/26 12:01:16;;;;;;;4.03;2.47;;;;;;;;;;4386777;32;67513;-72
2023/12/26 12:04:03;;;;;;;3.72;2.40;;;;;;;;;;4375369;32;67801;-72
2023/12/26 12:07:11;;;;;;;3.20;2.28;;;;;;;;;;4364598;32;70787;-71
2023/12/26 12:10:10;;;;;;;3.67;2.53;;;;;;;;;;4385914;32;66901;-72
2023/12/26 12:12:57;;;;;;;4.03;2.55;;;;;;;;;;4386507;32;67615;-72
2023/12/26 12:15:44;;;;;;;3.45;2.35;;;;;;;;;;4385463;32;60598;-71
2023/12/26 12:18:31;;;;;;;3.87;2.45;;;;;;;;;;4374562;32;71271;-72
2023/12/26 12:21:18;;;;;;;4.60;2.47;;;;;;;;;;4375565;32;69202;-71
2023/12/26 12:24:05;;;;;;;3.83;2.70;;;;;;;;;;4386024;32;67014;-71
2023/12/26 12:27:07;;;;;;;3.72;2.53;;;;;;;;;;4374940;32;73660;-72
2023/12/26 12:30:00;;;;;;;4.20;2.95;;;;;;;;;;4386804;32;69674;-72
2023/12/26 12:32:48;;;;;;;4.87;3.05;;;;;;;;;;4375576;32;68330;-72
2023/12/26 12:35:34;;;;;;;4.60;2.90;;;;;;;;;;4396823;32;66790;-72
2023/12/26 12:38:21;;;;;;;3.67;2.60;;;;;;;;;;4396431;32;71670;-71
2023/12/26 12:41:08;;;;;;;3.80;2.45;;;;;;;;;;4375447;32;65845;-72
2023/12/26 12:43:52;;;;;;;3.70;2.70;;;;;;;;;;3869032;36;43837;-73
2023/12/26 12:46:39;;;;;;;5.25;3.20;;;;;;;;;;4391073;32;60992;-71
2023/12/26 12:49:26;;;;;;;4.47;2.72;;;;;;;;;;4405296;32;69753;-75
2023/12/26 12:52:12;;;;;;;;;;;;;;;;;;4415824;32;69677;-72
2023/12/26 12:54:56;;;;;;;3.97;2.60;;;;;;;;;;3824390;37;43709;-71
2023/12/26 12:57:44;;;;;;;4.12;2.65;;;;;;;;;;4384208;32;59101;-72
2023/12/26 13:00:31;;;;;;;4.40;2.85;;;;;;;;;;4372926;32;70429;-72
2023/12/26 13:03:18;;;;;;;3.90;2.90;;;;;;;;;;4383549;32;68154;-71
2023/12/26 13:06:04;;;;;;;;;;;;;;;;;;4384407;32;67718;-71
2023/12/26 13:08:51;;;;;;;4.65;3.22;;;;;;;;;;4383801;32;71540;-71
2023/12/26 13:11:38;;;;;;;3.47;2.62;;;;;;;;;;4383823;32;65068;-72
2023/12/26 13:14:25;;;;;;;5.37;2.67;;;;;;;;;;4373528;32;66290;-70
2023/12/26 13:17:11;;;;;;;4.45;3.12;;;;;;;;;;4384138;32;59226;-73
2023/12/26 13:19:58;;;;;;;6.82;3.72;;;;;;;;;;4383434;32;70722;-71
2023/12/26 13:22:45;;;;;;;5.03;2.83;;;;;;;;;;4372502;32;64803;-71
2023/12/26 13:25:38;;;;;;;4.18;2.95;;;;;;;;;;4372984;32;67681;-71
2023/12/26 13:28:25;;;;;;;4.55;2.67;;;;;;;;;;4372023;32;61253;-71
2023/12/26 13:31:12;;;;;;;3.78;2.78;;;;;;;;;;4383265;32;69847;-72
2023/12/26 13:33:59;;;;;;;5.37;2.90;;;;;;;;;;4372501;32;69247;-72
2023/12/26 13:36:45;;;;;;;;;;;;;;;;;;4372943;32;66835;-72
2023/12/26 13:39:31;;;;;;;4.70;3.00;;;;;;;;;;4372243;32;71190;-72
2023/12/26 13:42:18;;;;;;;3.47;2.65;;;;;;;;;;4372899;32;65882;-71
2023/12/26 13:45:18;;;;;;;;;;;;;;;;;;4394051;32;69161;-72
2023/12/26 13:48:05;;;;;;;4.82;2.83;;;;;;;;;;4373662;32;67148;-71
2023/12/26 13:50:52;;;;;;;3.90;2.62;;;;;;;;;;4393099;32;72415;-72
2023/12/26 13:53:38;;;;;;;4.22;2.75;;;;;;;;;;4382764;32;66103;-72
2023/12/26 13:56:25;;;;;;;4.25;2.70;;;;;;;;;;4361719;32;66963;-72
2023/12/26 13:59:12;;;;;;;4.43;3.00;;;;;;;;;;4383389;32;59003;-71
2023/12/26 14:01:58;;;;;;;4.47;3.05;;;;;;;;;;4372322;32;70178;-72
2023/12/26 14:04:47;;;;;;;4.25;3.12;;;;;;;;;;4378597;32;68328;-72
2023/12/26 14:07:34;;;;;;;3.55;2.78;;;;;;;;;;4383633;32;67640;-72
2023/12/26 14:10:21;;;;;;;;;;;;;;;;;;4362034;32;60790;-73
2023/12/26 14:13:08;;;;;;;4.40;2.83;;;;;;;;;;4372912;32;69175;-71
2023/12/26 14:17:11;;;;;;;5.93;3.00;;;;;;;;;;3848889;37;43811;-72
2023/12/26 14:19:58;;;;;;;3.67;2.70;;;;;;;;;;4402306;32;59358;-71
2023/12/26 14:22:45;;;;;;;5.10;3.40;;;;;;;;;;4411518;32;69670;-71
2023/12/26 14:25:32;;;;;;;4.78;2.83;;;;;;;;;;4388315;32;67249;-71
2023/12/26 14:28:18;;;;;;;5.47;3.17;;;;;;;;;;4399137;32;67546;-72
2023/12/26 14:31:05;;;;;;;4.07;2.83;;;;;;;;;;4399948;32;69451;-72
2023/12/26 14:33:52;;;;;;;4.40;3.00;;;;;;;;;;4393011;32;66067;-72
2023/12/26 14:36:39;;;;;;;3.95;2.70;;;;;;;;;;4412355;32;66345;-72
2023/12/26 14:42:14;;;;;;;5.22;3.25;;;;;;;;;;3868958;36;43776;-73
2023/12/26 14:45:03;;;;;;;3.78;3.00;;;;;;;;;;4380064;32;58407;-71
2023/12/26 14:47:50;;;;;;;4.43;3.08;;;;;;;;;;4390223;32;71675;-72
2023/12/26 14:50:37;;;;;;;3.87;2.85;;;;;;;;;;4393573;32;69397;-72
2023/12/26 14:53:24;;;;;;;3.83;2.87;;;;;;;;;;4388172;32;67340;-72
2023/12/26 14:56:12;;;;;;;4.65;2.87;;;;;;;;;;4388019;32;71706;-72
2023/12/26 14:58:58;;;;;;;4.47;3.40;;;;;;;;;;4398888;32;66033;-71
2023/12/26 15:01:45;;;;;;;4.50;2.55;;;;;;;;;;4374804;32;67807;-72
2023/12/26 15:04:33;;;;;;;5.15;3.50;;;;;;;;;;4388661;32;60133;-72
2023/12/26 15:07:22;;;;;;;3.92;2.60;;;;;;;;;;4385395;32;72694;-72
2023/12/26 15:10:08;;;;;;;5.07;2.92;;;;;;;;;;4398873;32;65986;-72
2023/12/26 15:12:55;;;;;;;4.25;3.05;;;;;;;;;;4388199;32;67696;-70
2023/12/26 15:15:42;;;;;;;5.25;3.10;;;;;;;;;;4399186;32;60051;-72
2023/12/26 15:18:28;;;;;;;4.32;3.22;;;;;;;;;;4398970;32;70756;-72
2023/12/26 15:21:15;;;;;;;5.57;3.60;;;;;;;;;;4388386;32;69493;-71
2023/12/26 15:24:02;;;;;;;;;;;;;;;;;;4386376;32;67650;-73
2023/12/26 15:26:48;;;;;;;3.55;2.85;;;;;;;;;;4398915;32;71565;-71
2023/12/26 15:29:36;;;;;;;4.93;3.30;;;;;;;;;;4374951;32;65997;-72
2023/12/26 15:32:22;;;;;;;5.55;3.47;;;;;;;;;;4384786;32;70368;-72
2023/12/26 15:35:09;;;;;;;4.55;3.10;;;;;;;;;;4385334;32;68488;-71
2023/12/26 15:37:55;;;;;;;5.22;3.58;;;;;;;;;;4376871;32;71698;-71
2023/12/26 15:40:42;;;;;;;4.75;2.90;;;;;;;;;;4398163;32;65808;-72
2023/12/26 15:43:28;;;;;;;5.90;3.55;;;;;;;;;;4384523;32;67547;-71
2023/12/26 15:46:20;;;;;;;5.43;3.60;;;;;;;;;;4388223;32;59382;-70
2023/12/26 15:49:06;;;;;;;6.15;3.60;;;;;;;;;;4374365;32;70815;-71
2023/12/26 15:51:53;;;;;;;;;;;;;;;;;;4395219;32;69287;-71
2023/12/26 15:54:40;;;;;;;5.43;3.40;;;;;;;;;;4398766;32;67879;-72
2023/12/26 15:57:27;;;;;;;5.87;3.60;;;;;;;;;;4377944;32;60397;-73
2023/12/26 16:00:14;;;;;;;5.20;3.20;;;;;;;;;;4364097;32;71160;-71
2023/12/26 16:03:01;;;;;;;5.93;3.70;;;;;;;;;;4366976;32;68505;-71
2023/12/26 16:05:49;;;;;;;4.57;3.40;;;;;;;;;;4377234;32;67751;-72
2023/12/26 16:10:15;;;;;;;4.47;3.20;;;;;;;;;;3847604;37;43875;-72
2023/12/26 16:12:59;;;;;;;4.90;3.30;;;;;;;;;;3847390;37;43842;-71
2023/12/26 16:15:45;;;;;;;;;;;;;;;;;;4399677;32;60314;-71
2023/12/26 16:18:32;;;;;;;5.35;3.30;;;;;;;;;;4377524;32;71051;-73
2023/12/26 16:21:20;;;;;;;5.28;3.35;;;;;;;;;;4414558;32;69585;-72
2023/12/26 16:24:10;;;;;;;5.22;3.03;;;;;;;;;;4389037;32;67587;-72
2023/12/26 16:26:56;;;;;;;4.85;3.28;;;;;;;;;;4398062;32;72651;-72
2023/12/26 16:29:43;;;;;;;5.20;3.40;;;;;;;;;;4408976;32;67169;-72
2023/12/26 16:32:30;;;;;;;4.40;3.20;;;;;;;;;;4377030;32;68455;-73
2023/12/26 16:35:18;;;;;;;4.97;3.50;;;;;;;;;;4377012;32;60356;-72
2023/12/26 16:38:05;;;;;;;4.93;3.70;;;;;;;;;;4409296;32;71863;-72
2023/12/26 16:40:55;;;;;;;4.93;3.40;;;;;;;;;;4387722;32;63997;-72
2023/12/26 16:43:42;;;;;;;4.85;3.33;;;;;;;;;;4388422;32;66444;-72
2023/12/26 16:46:29;;;;;;;5.50;3.53;;;;;;;;;;4388290;32;59262;-72
2023/12/26 16:49:16;;;;;;;5.20;3.50;;;;;;;;;;4376978;32;72019;-72
2023/12/26 16:52:02;;;;;;;;;;;;;;;;;;4409659;32;69505;-71
2023/12/26 16:54:51;;;;;;;6.87;3.67;;;;;;;;;;4409201;32;68193;-72
2023/12/26 16:57:38;;;;;;;6.90;3.85;;;;;;;;;;4388025;32;71565;-72
2023/12/26 17:00:26;;;;;;;5.75;3.45;;;;;;;;;;4398870;32;66302;-72
2023/12/26 17:03:12;;;;;;;5.03;3.62;;;;;;;;;;4376543;32;69559;-72
2023/12/26 17:06:02;;;;;;;5.62;3.72;;;;;;;;;;4409349;32;68085;-72
2023/12/26 17:08:48;;;;;;;4.75;3.30;;;;;;;;;;4398588;32;70404;-72
2023/12/26 17:11:35;;;;;;;5.50;3.62;;;;;;;;;;4398060;32;66167;-72
2023/12/26 17:14:23;;;;;;;;;;;;;;;;;;4387914;32;68060;-72
2023/12/26 17:17:10;;;;;;;;;;;;;;;;;;4389154;32;58905;-71
2023/12/26 17:19:56;;;;;;;6.05;4.00;;;;;;;;;;4399560;32;70252;-72
2023/12/26 17:22:43;;;;;;;6.80;3.55;;;;;;;;;;4384405;32;69931;-72
2023/12/26 17:25:30;;;;;;;5.93;3.80;;;;;;;;;;4381888;32;67884;-73
2023/12/26 17:28:17;;;;;;;5.20;3.53;;;;;;;;;;4393074;32;60359;-71
2023/12/26 17:31:03;;;;;;;5.05;3.55;;;;;;;;;;4377586;32;69505;-72
2023/12/26 17:33:50;;;;;;;5.25;3.37;;;;;;;;;;4398769;32;68913;-72
2023/12/26 17:36:36;;;;;;;;;;;;;;;;;;4399416;32;67752;-71
2023/12/26 17:39:23;;;;;;;5.95;3.83;;;;;;;;;;4387940;32;70901;-72
2023/12/26 17:42:09;;;;;;;5.43;3.90;;;;;;;;;;4376591;32;67550;-72
2023/12/26 17:44:56;;;;;;;6.12;3.72;;;;;;;;;;4387998;32;66665;-72
2023/12/26 17:47:43;;;;;;;6.07;3.97;;;;;;;;;;4398902;32;60341;-73
2023/12/26 17:50:29;;;;;;;;;;;;;;;;;;4387491;32;71834;-72
2023/12/26 17:53:18;;;;;;;6.07;3.50;;;;;;;;;;4365741;32;65762;-72
2023/12/26 17:56:05;;;;;;;5.95;3.83;;;;;;;;;;4365954;32;68320;-72
2023/12/26 17:58:51;;;;;;;6.47;4.03;;;;;;;;;;4387960;32;60049;-72
2023/12/26 18:01:43;;;;;;;6.62;4.12;;;;;;;;;;4387587;32;71217;-72
2023/12/26 18:04:30;;;;;;;5.40;3.60;;;;;;;;;;4387198;32;70607;-72
2023/12/26 18:07:17;;;;;;;6.30;4.18;;;;;;;;;;4377195;32;66610;-72
2023/12/26 18:10:04;;;;;;;6.22;4.03;;;;;;;;;;4376915;32;71738;-73
2023/12/26 18:12:52;;;;;;;6.60;3.80;;;;;;;;;;4365627;32;65726;-72
2023/12/26 18:15:39;;;;;;;5.75;3.70;;;;;;;;;;4387393;32;68641;-72
2023/12/26 18:18:27;;;;;;;6.95;4.18;;;;;;;;;;4398017;32;67331;-72
2023/12/26 18:21:14;;;;;;;5.57;3.85;;;;;;;;;;4376379;32;70059;-72
2023/12/26 18:24:01;;;;;;;5.22;3.80;;;;;;;;;;4387420;32;65865;-72
2023/12/26 18:26:48;;;;;;;5.00;3.40;;;;;;;;;;4387325;32;67790;-72
2023/12/26 18:29:34;;;;;;;5.75;3.90;;;;;;;;;;4386800;32;57892;-72
2023/12/26 18:32:21;;;;;;;5.93;3.65;;;;;;;;;;4397362;32;71129;-72
2023/12/26 18:35:09;;;;;;;;;;;;;;;;;;4398950;32;69545;-72
2023/12/26 18:37:57;;;;;;;6.53;4.03;;;;;;;;;;4398107;32;67733;-72
2023/12/26 18:40:44;;;;;;;6.50;3.97;;;;;;;;;;4387485;32;60351;-71
2023/12/26 18:43:30;;;;;;;4.70;3.97;;;;;;;;;;4386988;32;70712;-71
2023/12/26 18:46:18;;;;;;;5.40;3.85;;;;;;;;;;4376361;32;69119;-72
2023/12/26 18:49:08;;;;;;;5.87;4.22;;;;;;;;;;4387054;32;67744;-72
2023/12/26 18:51:55;;;;;;;5.43;3.70;;;;;;;;;;4375473;32;72584;-72
2023/12/26 18:54:42;;;;;;;7.32;4.40;;;;;;;;;;4375776;32;66914;-72
2023/12/26 18:57:32;;;;;;;6.50;3.58;;;;;;;;;;4375688;32;67571;-73
2023/12/26 19:00:19;;;;;;;5.95;4.07;;;;;;;;;;4398001;32;60308;-72
2023/12/26 19:03:06;;;;;;;6.75;4.03;;;;;;;;;;4386681;32;70820;-72
2023/12/26 19:05:53;;;;;;;7.45;4.00;;;;;;;;;;4386780;32;64992;-72
2023/12/26 19:08:40;;;;;;;6.03;3.58;;;;;;;;;;4397560;32;66428;-72
2023/12/26 19:11:27;;;;;;;6.37;4.28;;;;;;;;;;4386742;32;59031;-72
2023/12/26 19:14:15;;;;;;;5.05;3.65;;;;;;;;;;4375030;32;71404;-72
2023/12/26 19:17:02;;;;;;;5.57;3.67;;;;;;;;;;4396880;32;68768;-71
2023/12/26 19:19:49;;;;;;;5.50;4.05;;;;;;;;;;4386142;32;68952;-71
2023/12/26 19:22:34;;;;;;;5.90;3.83;;;;;;;;;;3847278;37;43423;-72
2023/12/26 19:25:21;;;;;;;5.97;3.65;;;;;;;;;;4377520;32;58911;-72
2023/12/26 19:28:11;;;;;;;5.85;4.07;;;;;;;;;;4409759;32;69317;-71
2023/12/26 19:30:57;;;;;;;6.07;3.80;;;;;;;;;;4388232;32;68110;-71
2023/12/26 19:34:01;;;;;;;7.15;4.03;;;;;;;;;;3847322;37;43849;-71
2023/12/26 19:36:48;;;;;;;6.22;4.10;;;;;;;;;;4387944;32;61334;-72
2023/12/26 19:39:35;;;;;;;6.30;4.00;;;;;;;;;;4387864;32;71716;-72
2023/12/26 19:42:21;;;;;;;7.85;4.03;;;;;;;;;;4398983;32;69570;-72